createdAt,value
2019-05-06T00:00:55.352Z,9.30
2019-05-06T00:01:44.251Z,8.80
2019-05-06T00:02:43.609Z,9.10
2019-05-06T00:03:43.448Z,9.40
2019-05-06T00:04:42.296Z,9.20
2019-05-06T00:05:43.623Z,9.60
2019-05-06T00:06:43.899Z,9.70
2019-05-06T00:07:41.925Z,9.20
2019-05-06T00:08:43.845Z,8.70
2019-05-06T00:09:41.742Z,9.10
2019-05-06T00:10:41.718Z,8.50
2019-05-06T00:11:41.571Z,9.20
2019-05-06T00:12:41.558Z,8.40
2019-05-06T00:13:41.392Z,8.20
2019-05-06T00:14:43.168Z,9.00
2019-05-06T00:15:41.221Z,8.70
2019-05-06T00:16:41.346Z,8.30
2019-05-06T00:17:41.060Z,8.90
2019-05-06T00:18:41.154Z,8.90
2019-05-06T00:19:40.886Z,9.30
2019-05-06T00:20:40.977Z,9.00
2019-05-06T00:21:40.707Z,8.90
2019-05-06T00:22:40.770Z,8.20
2019-05-06T00:23:40.541Z,8.40
2019-05-06T00:24:40.445Z,8.40
2019-05-06T00:25:40.382Z,8.40
2019-05-06T00:26:40.271Z,8.30
2019-05-06T00:27:40.181Z,7.80
2019-05-06T00:28:40.231Z,7.70
2019-05-06T00:29:40.015Z,8.30
2019-05-06T00:30:39.921Z,7.50
2019-05-06T00:31:40.010Z,7.60
2019-05-06T00:32:39.747Z,7.10
2019-05-06T00:33:39.674Z,8.20
2019-05-06T00:34:39.619Z,7.90
2019-05-06T00:35:39.491Z,7.60
2019-05-06T00:36:39.429Z,7.40
2019-05-06T00:37:39.329Z,7.60
2019-05-06T00:38:40.617Z,7.60
2019-05-06T00:39:39.243Z,7.20
2019-05-06T00:40:39.054Z,7.20
2019-05-06T00:41:38.966Z,7.20
2019-05-06T00:42:39.059Z,6.70
2019-05-06T00:43:38.805Z,7.10
2019-05-06T00:44:38.868Z,7.70
2019-05-06T00:45:38.621Z,7.40
2019-05-06T00:46:38.675Z,7.20
2019-05-06T00:47:38.446Z,7.40
2019-05-06T00:48:38.370Z,7.30
2019-05-06T00:49:38.491Z,7.40
2019-05-06T00:50:38.186Z,7.40
2019-05-06T00:51:38.106Z,7.50
2019-05-06T00:52:38.104Z,7.60
2019-05-06T00:53:37.948Z,7.60
2019-05-06T00:54:37.839Z,8.40
2019-05-06T00:55:37.915Z,8.90
2019-05-06T00:56:37.665Z,7.90
2019-05-06T00:57:37.586Z,8.50
2019-05-06T00:58:38.581Z,7.70
2019-05-06T00:59:37.403Z,8.10
2019-05-06T01:00:37.321Z,7.80
2019-05-06T01:01:37.342Z,7.70
2019-05-06T01:02:37.180Z,7.10
2019-05-06T01:03:37.100Z,8.00
2019-05-06T01:04:37.198Z,8.50
2019-05-06T01:05:36.881Z,7.60
2019-05-06T01:06:36.798Z,7.50
2019-05-06T01:07:36.763Z,7.20
2019-05-06T01:08:36.635Z,8.00
2019-05-06T01:09:36.537Z,8.10
2019-05-06T01:10:36.584Z,7.60
2019-05-06T01:11:36.359Z,7.50
2019-05-06T01:12:36.702Z,7.40
2019-05-06T01:13:36.226Z,7.60
2019-05-06T01:14:36.098Z,7.70
2019-05-06T01:15:36.634Z,7.20
2019-05-06T01:16:35.923Z,7.20
2019-05-06T01:17:35.838Z,7.60
2019-05-06T01:18:35.849Z,7.80
2019-05-06T01:19:35.663Z,7.80
2019-05-06T01:20:35.577Z,7.80
2019-05-06T01:21:35.632Z,7.40
2019-05-06T01:22:35.404Z,8.00
2019-05-06T01:23:35.329Z,7.90
2019-05-06T01:24:35.447Z,7.70
2019-05-06T01:25:35.141Z,7.10
2019-05-06T01:26:35.056Z,7.60
2019-05-06T01:27:35.057Z,7.80
2019-05-06T01:28:34.904Z,8.10
2019-05-06T01:29:34.945Z,7.70
2019-05-06T01:30:34.870Z,8.00
2019-05-06T01:31:42.709Z,8.20
2019-05-06T01:32:34.610Z,7.70
2019-05-06T01:33:35.043Z,7.50
2019-05-06T01:34:34.356Z,8.00
2019-05-06T01:35:35.198Z,7.70
2019-05-06T01:36:34.513Z,8.30
2019-05-06T01:37:34.830Z,8.50
2019-05-06T01:38:34.139Z,7.80
2019-05-06T01:39:34.247Z,7.90
2019-05-06T01:40:34.585Z,7.20
2019-05-06T01:41:33.991Z,7.40
2019-05-06T01:42:34.442Z,8.00
2019-05-06T01:43:34.676Z,7.80
2019-05-06T01:44:33.982Z,7.50
2019-05-06T01:45:34.867Z,8.40
2019-05-06T01:46:34.002Z,7.70
2019-05-06T01:47:34.554Z,7.80
2019-05-06T01:48:33.633Z,7.80
2019-05-06T01:49:34.040Z,7.50
2019-05-06T01:50:34.460Z,7.90
2019-05-06T01:51:34.796Z,8.10
2019-05-06T01:52:34.470Z,8.30
2019-05-06T01:53:33.846Z,8.30
2019-05-06T01:54:34.421Z,7.90
2019-05-06T01:55:34.315Z,8.40
2019-05-06T01:56:33.628Z,8.00
2019-05-06T01:57:33.792Z,7.90
2019-05-06T01:58:33.572Z,8.10
2019-05-06T01:59:34.027Z,7.80
2019-05-06T02:00:34.329Z,7.80
2019-05-06T02:01:33.907Z,8.30
2019-05-06T02:02:34.202Z,7.90
2019-05-06T02:03:31.830Z,8.50
2019-05-06T02:04:33.574Z,8.50
2019-05-06T02:05:33.694Z,8.10
2019-05-06T02:06:31.584Z,8.40
2019-05-06T02:07:31.479Z,7.80
2019-05-06T02:08:33.569Z,8.40
2019-05-06T02:09:31.327Z,8.20
2019-05-06T02:10:31.246Z,7.80
2019-05-06T02:11:31.135Z,8.10
2019-05-06T02:12:31.262Z,8.80
2019-05-06T02:13:30.960Z,8.40
2019-05-06T02:14:30.892Z,8.50
2019-05-06T02:15:30.869Z,8.80
2019-05-06T02:16:30.703Z,8.20
2019-05-06T02:17:30.621Z,8.20
2019-05-06T02:18:30.685Z,8.70
2019-05-06T02:19:30.447Z,8.50
2019-05-06T02:20:30.353Z,8.70
2019-05-06T02:21:30.303Z,8.80
2019-05-06T02:22:30.177Z,8.20
2019-05-06T02:23:30.091Z,7.80
2019-05-06T02:24:30.140Z,8.00
2019-05-06T02:25:29.918Z,8.10
2019-05-06T02:26:29.829Z,8.00
2019-05-06T02:27:29.926Z,7.90
2019-05-06T02:28:29.654Z,8.40
2019-05-06T02:29:29.582Z,8.30
2019-05-06T02:30:29.536Z,8.10
2019-05-06T02:31:29.396Z,8.10
2019-05-06T02:32:31.586Z,8.10
2019-05-06T02:33:29.220Z,8.00
2019-05-06T02:34:29.184Z,8.30
2019-05-06T02:35:29.061Z,8.30
2019-05-06T02:36:29.171Z,8.70
2019-05-06T02:37:28.877Z,8.60
2019-05-06T02:38:39.702Z,9.20
2019-05-06T02:39:28.723Z,8.60
2019-05-06T02:40:28.783Z,8.60
2019-05-06T02:41:28.534Z,8.70
2019-05-06T02:42:28.596Z,8.50
2019-05-06T02:43:28.359Z,8.70
2019-05-06T02:44:28.281Z,8.90
2019-05-06T02:45:28.200Z,8.70
2019-05-06T02:46:28.096Z,8.40
2019-05-06T02:47:28.006Z,8.80
2019-05-06T02:48:28.018Z,8.90
2019-05-06T02:49:27.843Z,9.10
2019-05-06T02:50:27.745Z,9.20
2019-05-06T02:51:27.834Z,9.50
2019-05-06T02:52:27.568Z,9.30
2019-05-06T02:53:27.489Z,9.30
2019-05-06T02:54:27.477Z,9.30
2019-05-06T02:55:27.309Z,8.80
2019-05-06T02:56:27.249Z,8.90
2019-05-06T02:57:27.152Z,8.90
2019-05-06T02:58:27.046Z,8.10
2019-05-06T02:59:27.066Z,8.60
2019-05-06T03:00:26.890Z,8.50
2019-05-06T03:01:26.787Z,9.10
2019-05-06T03:02:41.976Z,8.70
2019-05-06T03:03:26.612Z,8.60
2019-05-06T03:04:26.532Z,9.30
2019-05-06T03:05:26.522Z,8.90
2019-05-06T03:06:26.362Z,8.60
2019-05-06T03:07:26.301Z,8.50
2019-05-06T03:08:26.179Z,8.50
2019-05-06T03:09:26.096Z,8.90
2019-05-06T03:10:26.161Z,8.90
2019-05-06T03:11:25.916Z,9.30
2019-05-06T03:12:25.836Z,9.30
2019-05-06T03:13:25.934Z,9.40
2019-05-06T03:14:25.656Z,8.80
2019-05-06T03:15:25.586Z,9.90
2019-05-06T03:16:25.496Z,8.60
2019-05-06T03:17:25.546Z,9.50
2019-05-06T03:18:25.309Z,8.70
2019-05-06T03:19:25.222Z,9.20
2019-05-06T03:20:25.162Z,9.20
2019-05-06T03:21:25.162Z,9.00
2019-05-06T03:22:27.836Z,9.10
2019-05-06T03:23:24.974Z,9.60
2019-05-06T03:24:24.791Z,9.80
2019-05-06T03:25:24.814Z,9.60
2019-05-06T03:26:24.611Z,10.00
2019-05-06T03:27:24.589Z,9.90
2019-05-06T03:28:24.441Z,9.80
2019-05-06T03:29:25.273Z,9.90
2019-05-06T03:30:25.693Z,9.00
2019-05-06T03:31:26.174Z,9.10
2019-05-06T03:32:30.491Z,9.10
2019-05-06T03:33:50.461Z,9.80
2019-05-06T03:34:49.791Z,8.90
2019-05-06T03:35:40.482Z,9.40
2019-05-06T03:36:25.555Z,9.30
2019-05-06T03:37:24.009Z,8.90
2019-05-06T03:38:23.570Z,9.60
2019-05-06T03:39:23.643Z,10.10
2019-05-06T03:40:23.409Z,9.30
2019-05-06T03:41:26.540Z,10.30
2019-05-06T03:42:23.458Z,9.20
2019-05-06T03:43:23.461Z,9.10
2019-05-06T03:44:23.893Z,9.50
2019-05-06T03:45:23.735Z,9.70
2019-05-06T03:46:23.292Z,10.10
2019-05-06T03:47:23.587Z,10.10
2019-05-06T03:48:23.963Z,9.90
2019-05-06T03:49:23.849Z,10.10
2019-05-06T03:50:23.978Z,10.00
2019-05-06T03:51:23.346Z,9.90
2019-05-06T03:52:23.195Z,10.10
2019-05-06T03:53:23.282Z,10.50
2019-05-06T03:54:23.239Z,9.80
2019-05-06T03:55:23.429Z,10.00
2019-05-06T03:56:23.872Z,10.30
2019-05-06T03:57:23.192Z,10.10
2019-05-06T03:58:26.334Z,10.40
2019-05-06T03:59:23.305Z,10.00
2019-05-06T04:00:23.677Z,9.60
2019-05-06T04:01:24.030Z,9.80
2019-05-06T04:02:24.054Z,9.50
2019-05-06T04:03:28.311Z,9.50
2019-05-06T04:04:23.372Z,9.50
2019-05-06T04:05:23.769Z,9.60
2019-05-06T04:06:23.883Z,9.60
2019-05-06T04:07:23.443Z,9.70
2019-05-06T04:08:23.984Z,9.80
2019-05-06T04:09:23.811Z,8.80
2019-05-06T04:10:22.836Z,9.80
2019-05-06T04:11:22.820Z,9.70
2019-05-06T04:12:23.404Z,9.90
2019-05-06T04:13:23.083Z,10.40
2019-05-06T04:14:20.423Z,9.70
2019-05-06T04:15:22.992Z,10.20
2019-05-06T04:16:22.841Z,10.00
2019-05-06T04:17:20.165Z,9.90
2019-05-06T04:18:20.227Z,10.10
2019-05-06T04:19:19.991Z,10.40
2019-05-06T04:20:19.911Z,9.60
2019-05-06T04:21:19.862Z,10.40
2019-05-06T04:22:19.727Z,9.90
2019-05-06T04:23:19.647Z,10.00
2019-05-06T04:24:22.438Z,10.10
2019-05-06T04:25:19.470Z,10.00
2019-05-06T04:26:19.481Z,10.00
2019-05-06T04:27:19.309Z,10.10
2019-05-06T04:28:19.285Z,9.70
2019-05-06T04:29:19.121Z,9.80
2019-05-06T04:30:19.035Z,9.90
2019-05-06T04:31:19.108Z,10.20
2019-05-06T04:32:18.858Z,9.70
2019-05-06T04:33:18.780Z,9.80
2019-05-06T04:34:19.801Z,10.20
2019-05-06T04:35:18.605Z,10.10
2019-05-06T04:36:18.730Z,10.70
2019-05-06T04:37:18.424Z,10.30
2019-05-06T04:38:18.509Z,10.50
2019-05-06T04:39:18.255Z,10.90
2019-05-06T04:40:18.168Z,10.80
2019-05-06T04:41:18.099Z,10.40
2019-05-06T04:42:18.019Z,10.10
2019-05-06T04:43:17.914Z,11.00
2019-05-06T04:44:17.835Z,10.70
2019-05-06T04:45:17.778Z,11.90
2019-05-06T04:46:17.875Z,12.70
2019-05-06T04:47:17.558Z,12.50
2019-05-06T04:48:17.651Z,12.10
2019-05-06T04:49:17.394Z,11.90
2019-05-06T04:50:17.312Z,12.30
2019-05-06T04:51:17.235Z,11.70
2019-05-06T04:52:17.266Z,11.70
2019-05-06T04:53:17.048Z,12.00
2019-05-06T04:54:16.957Z,13.00
2019-05-06T04:55:16.879Z,11.20
2019-05-06T04:56:16.800Z,11.70
2019-05-06T04:57:16.702Z,11.80
2019-05-06T04:58:16.630Z,11.10
2019-05-06T04:59:16.547Z,12.10
2019-05-06T05:00:16.450Z,12.10
2019-05-06T05:01:16.377Z,11.30
2019-05-06T05:02:16.268Z,11.40
2019-05-06T05:03:16.183Z,11.60
2019-05-06T05:04:28.220Z,11.70
2019-05-06T05:05:16.017Z,11.60
2019-05-06T05:06:15.941Z,11.90
2019-05-06T05:07:15.857Z,11.60
2019-05-06T05:08:15.770Z,10.40
2019-05-06T05:09:17.421Z,11.20
2019-05-06T05:10:15.597Z,11.20
2019-05-06T05:11:15.510Z,11.00
2019-05-06T05:12:15.416Z,11.10
2019-05-06T05:13:15.340Z,11.20
2019-05-06T05:14:15.246Z,10.80
2019-05-06T05:15:15.161Z,11.10
2019-05-06T05:16:15.096Z,10.70
2019-05-06T05:17:14.994Z,11.20
2019-05-06T05:18:14.914Z,11.40
2019-05-06T05:19:14.812Z,11.30
2019-05-06T05:20:14.735Z,11.60
2019-05-06T05:21:14.652Z,11.30
2019-05-06T05:22:14.570Z,11.10
2019-05-06T05:23:14.477Z,10.50
2019-05-06T05:24:14.386Z,11.20
2019-05-06T05:25:14.318Z,11.00
2019-05-06T05:26:14.217Z,10.80
2019-05-06T05:27:14.167Z,11.00
2019-05-06T05:28:14.043Z,10.80
2019-05-06T05:29:13.972Z,11.60
2019-05-06T05:30:13.876Z,11.30
2019-05-06T05:31:13.787Z,11.10
2019-05-06T05:32:13.721Z,11.20
2019-05-06T05:33:13.616Z,11.60
2019-05-06T05:34:13.533Z,10.50
2019-05-06T05:35:13.669Z,10.70
2019-05-06T05:36:13.360Z,11.30
2019-05-06T05:37:13.501Z,11.60
2019-05-06T05:38:13.289Z,11.20
2019-05-06T05:39:13.104Z,10.90
2019-05-06T05:40:13.139Z,11.60
2019-05-06T05:41:12.940Z,11.20
2019-05-06T05:42:12.876Z,11.00
2019-05-06T05:43:12.774Z,11.40
2019-05-06T05:44:12.681Z,11.50
2019-05-06T05:45:12.926Z,11.40
2019-05-06T05:46:12.759Z,11.90
2019-05-06T05:47:12.476Z,11.80
2019-05-06T05:48:12.459Z,11.20
2019-05-06T05:49:12.263Z,11.50
2019-05-06T05:50:13.292Z,11.90
2019-05-06T05:51:12.789Z,11.60
2019-05-06T05:52:12.705Z,11.30
2019-05-06T05:53:12.138Z,11.80
2019-05-06T05:54:12.475Z,11.80
2019-05-06T05:55:12.110Z,11.70
2019-05-06T05:56:12.366Z,11.50
2019-05-06T05:57:11.954Z,12.00
2019-05-06T05:58:12.996Z,12.80
2019-05-06T05:59:12.231Z,11.80
2019-05-06T06:00:12.906Z,11.50
2019-05-06T06:01:12.692Z,12.40
2019-05-06T06:02:12.929Z,12.00
2019-05-06T06:03:12.685Z,12.10
2019-05-06T06:04:12.868Z,13.00
2019-05-06T06:05:12.396Z,12.20
2019-05-06T06:06:12.652Z,12.50
2019-05-06T06:07:12.158Z,12.10
2019-05-06T06:08:12.837Z,11.90
2019-05-06T06:09:12.585Z,11.30
2019-05-06T06:10:12.805Z,12.60
2019-05-06T06:11:12.228Z,12.00
2019-05-06T06:12:12.072Z,11.20
2019-05-06T06:13:10.227Z,12.00
2019-05-06T06:14:12.551Z,11.70
2019-05-06T06:15:10.063Z,11.80
2019-05-06T06:16:09.978Z,12.40
2019-05-06T06:17:09.910Z,11.30
2019-05-06T06:18:09.809Z,12.60
2019-05-06T06:19:09.721Z,12.30
2019-05-06T06:20:09.643Z,12.20
2019-05-06T06:21:20.721Z,12.30
2019-05-06T06:22:09.485Z,11.70
2019-05-06T06:23:10.395Z,12.00
2019-05-06T06:24:09.312Z,12.10
2019-05-06T06:25:09.224Z,12.30
2019-05-06T06:26:09.141Z,11.40
2019-05-06T06:27:09.083Z,11.90
2019-05-06T06:28:08.968Z,11.70
2019-05-06T06:29:08.892Z,12.00
2019-05-06T06:30:08.800Z,11.50
2019-05-06T06:31:08.723Z,11.60
2019-05-06T06:32:08.641Z,11.70
2019-05-06T06:33:08.565Z,11.80
2019-05-06T06:34:08.467Z,11.50
2019-05-06T06:35:14.128Z,11.90
2019-05-06T06:36:08.303Z,11.10
2019-05-06T06:37:08.220Z,11.20
2019-05-06T06:38:08.152Z,12.10
2019-05-06T06:39:08.058Z,11.80
2019-05-06T06:40:07.971Z,11.60
2019-05-06T06:41:07.901Z,12.10
2019-05-06T06:42:07.802Z,12.40
2019-05-06T06:43:07.727Z,11.40
2019-05-06T06:44:07.643Z,11.00
2019-05-06T06:45:07.565Z,12.00
2019-05-06T06:46:09.372Z,11.10
2019-05-06T06:47:07.391Z,11.70
2019-05-06T06:48:07.724Z,11.60
2019-05-06T06:49:07.224Z,11.20
2019-05-06T06:50:07.149Z,11.60
2019-05-06T06:51:07.059Z,10.50
2019-05-06T06:52:11.103Z,11.10
2019-05-06T06:53:06.907Z,11.00
2019-05-06T06:54:06.813Z,11.30
2019-05-06T06:55:06.736Z,11.10
2019-05-06T06:56:06.642Z,10.60
2019-05-06T06:57:09.336Z,11.10
2019-05-06T06:58:06.495Z,11.20
2019-05-06T06:59:06.395Z,11.20
2019-05-06T07:00:06.326Z,11.30
2019-05-06T07:01:06.241Z,10.70
2019-05-06T07:02:06.147Z,11.20
2019-05-06T07:03:06.085Z,11.40
2019-05-06T07:04:10.418Z,10.70
2019-05-06T07:05:05.903Z,11.50
2019-05-06T07:06:05.823Z,12.10
2019-05-06T07:07:05.738Z,10.40
2019-05-06T07:08:05.677Z,10.80
2019-05-06T07:09:05.576Z,11.50
2019-05-06T07:10:05.497Z,11.30
2019-05-06T07:11:05.417Z,11.20
2019-05-06T07:12:05.416Z,11.30
2019-05-06T07:13:05.260Z,11.80
2019-05-06T07:14:05.165Z,11.50
2019-05-06T07:15:05.089Z,11.70
2019-05-06T07:16:04.997Z,11.40
2019-05-06T07:17:04.922Z,11.60
2019-05-06T07:18:04.847Z,11.30
2019-05-06T07:19:04.748Z,10.90
2019-05-06T07:20:04.676Z,11.00
2019-05-06T07:21:06.016Z,11.10
2019-05-06T07:22:06.882Z,11.30
2019-05-06T07:23:04.443Z,11.90
2019-05-06T07:24:04.341Z,11.10
2019-05-06T07:25:04.266Z,11.50
2019-05-06T07:26:04.175Z,11.30
2019-05-06T07:27:04.091Z,11.90
2019-05-06T07:28:04.030Z,11.80
2019-05-06T07:29:13.140Z,12.20
2019-05-06T07:30:03.855Z,11.60
2019-05-06T07:31:17.361Z,10.90
2019-05-06T07:32:03.682Z,10.70
2019-05-06T07:33:03.803Z,10.30
2019-05-06T07:34:03.518Z,11.20
2019-05-06T07:35:06.143Z,10.40
2019-05-06T07:36:03.387Z,11.00
2019-05-06T07:37:03.633Z,10.70
2019-05-06T07:38:03.237Z,11.10
2019-05-06T07:39:04.285Z,10.80
2019-05-06T07:40:03.193Z,11.90
2019-05-06T07:41:04.602Z,10.80
2019-05-06T07:42:02.863Z,10.10
2019-05-06T07:43:02.782Z,11.40
2019-05-06T07:44:02.705Z,11.90
2019-05-06T07:45:06.540Z,10.30
2019-05-06T07:46:02.594Z,11.10
2019-05-06T07:47:03.583Z,10.70
2019-05-06T07:48:03.522Z,10.60
2019-05-06T07:49:03.327Z,10.80
2019-05-06T07:50:02.585Z,11.60
2019-05-06T07:51:03.083Z,10.60
2019-05-06T07:52:02.903Z,10.50
2019-05-06T07:53:02.438Z,10.50
2019-05-06T07:54:02.824Z,10.50
2019-05-06T07:55:02.550Z,10.60
2019-05-06T07:56:03.630Z,10.40
2019-05-06T07:57:02.398Z,10.30
2019-05-06T07:58:02.926Z,10.40
2019-05-06T07:59:03.244Z,9.70
2019-05-06T08:00:03.308Z,10.40
2019-05-06T08:01:02.623Z,9.90
2019-05-06T08:02:02.272Z,10.60
2019-05-06T08:03:02.578Z,10.70
2019-05-06T08:04:02.525Z,10.30
2019-05-06T08:05:02.599Z,10.00
2019-05-06T08:06:02.651Z,9.20
2019-05-06T08:07:02.924Z,10.10
2019-05-06T08:08:02.774Z,9.40
2019-05-06T08:09:03.113Z,9.50
2019-05-06T08:10:02.187Z,9.50
2019-05-06T08:11:02.750Z,9.30
2019-05-06T08:12:02.649Z,9.50
2019-05-06T08:13:02.505Z,9.00
2019-05-06T08:14:02.198Z,9.10
2019-05-06T08:15:04.536Z,9.00
2019-05-06T08:16:02.031Z,9.40
2019-05-06T08:17:02.082Z,8.70
2019-05-06T08:17:59.938Z,9.00
2019-05-06T08:18:59.867Z,8.70
2019-05-06T08:20:02.310Z,8.90
2019-05-06T08:20:59.705Z,8.40
2019-05-06T08:21:59.627Z,9.10
2019-05-06T08:22:59.544Z,8.60
2019-05-06T08:23:59.489Z,8.40
2019-05-06T08:24:59.432Z,8.30
2019-05-06T08:26:11.566Z,8.70
2019-05-06T08:26:59.242Z,8.30
2019-05-06T08:27:59.158Z,8.40
2019-05-06T08:28:59.097Z,8.50
2019-05-06T08:29:59.012Z,7.80
2019-05-06T08:30:58.927Z,7.70
2019-05-06T08:31:58.858Z,7.90
2019-05-06T08:32:58.777Z,8.30
2019-05-06T08:33:58.711Z,7.90
2019-05-06T08:34:58.619Z,7.90
2019-05-06T08:36:08.962Z,7.70
2019-05-06T08:36:58.475Z,7.10
2019-05-06T08:37:58.404Z,6.30
2019-05-06T08:38:58.339Z,6.80
2019-05-06T08:39:58.255Z,6.70
2019-05-06T08:40:58.168Z,7.30
2019-05-06T08:41:58.093Z,7.20
2019-05-06T08:42:58.016Z,6.90
2019-05-06T08:43:57.960Z,6.10
2019-05-06T08:44:57.867Z,6.10
2019-05-06T08:45:57.795Z,5.50
2019-05-06T08:46:57.727Z,5.50
2019-05-06T08:47:57.652Z,5.50
2019-05-06T08:48:57.588Z,5.90
2019-05-06T08:49:57.504Z,6.00
2019-05-06T08:50:57.427Z,6.20
2019-05-06T08:51:57.349Z,5.80
2019-05-06T08:52:57.281Z,5.50
2019-05-06T08:53:57.211Z,5.50
2019-05-06T08:54:57.129Z,5.60
2019-05-06T08:55:57.066Z,5.70
2019-05-06T08:56:56.981Z,5.90
2019-05-06T08:57:56.949Z,5.00
2019-05-06T08:58:56.845Z,4.90
2019-05-06T08:59:56.784Z,5.70
2019-05-06T09:00:57.570Z,5.40
2019-05-06T09:01:56.620Z,5.70
2019-05-06T09:02:56.546Z,5.50
2019-05-06T09:04:08.895Z,5.10
2019-05-06T09:04:56.409Z,5.10
2019-05-06T09:05:56.325Z,5.10
2019-05-06T09:06:56.267Z,5.30
2019-05-06T09:07:56.181Z,5.40
2019-05-06T09:08:56.980Z,5.60
2019-05-06T09:09:56.044Z,5.20
2019-05-06T09:10:55.955Z,5.60
2019-05-06T09:11:55.877Z,5.30
2019-05-06T09:12:55.806Z,5.30
2019-05-06T09:13:55.724Z,5.50
2019-05-06T09:14:55.668Z,5.80
2019-05-06T09:15:55.576Z,5.50
2019-05-06T09:16:55.501Z,5.20
2019-05-06T09:17:55.419Z,5.50
2019-05-06T09:18:55.342Z,5.80
2019-05-06T09:19:55.270Z,5.60
2019-05-06T09:20:55.182Z,5.90
2019-05-06T09:21:55.109Z,5.70
2019-05-06T09:22:55.025Z,6.30
2019-05-06T09:23:54.985Z,5.70
2019-05-06T09:24:54.884Z,6.00
2019-05-06T09:25:54.829Z,6.50
2019-05-06T09:26:54.718Z,6.40
2019-05-06T09:27:54.627Z,6.70
2019-05-06T09:28:54.548Z,6.70
2019-05-06T09:29:54.488Z,6.90
2019-05-06T09:30:54.386Z,6.90
2019-05-06T09:31:54.305Z,7.30
2019-05-06T09:32:54.238Z,6.90
2019-05-06T09:33:54.147Z,7.50
2019-05-06T09:34:54.078Z,6.90
2019-05-06T09:35:54.009Z,6.80
2019-05-06T09:36:54.944Z,7.10
2019-05-06T09:37:53.837Z,7.00
2019-05-06T09:38:53.749Z,6.90
2019-05-06T09:39:53.792Z,6.70
2019-05-06T09:40:53.617Z,6.90
2019-05-06T09:41:57.742Z,6.80
2019-05-06T09:42:53.460Z,7.20
2019-05-06T09:43:53.353Z,6.80
2019-05-06T09:44:54.361Z,7.70
2019-05-06T09:45:53.206Z,7.10
2019-05-06T09:46:53.196Z,7.80
2019-05-06T09:47:53.202Z,8.50
2019-05-06T09:48:52.973Z,8.30
2019-05-06T09:49:53.298Z,8.10
2019-05-06T09:50:53.762Z,8.20
2019-05-06T09:51:52.976Z,8.60
2019-05-06T09:52:52.961Z,9.30
2019-05-06T09:53:53.076Z,8.70
2019-05-06T09:54:53.586Z,8.60
2019-05-06T09:55:52.411Z,8.90
2019-05-06T09:56:53.321Z,9.00
2019-05-06T09:57:52.398Z,9.30
2019-05-06T09:58:52.915Z,9.60
2019-05-06T09:59:52.662Z,9.30
2019-05-06T10:00:52.020Z,9.20
2019-05-06T10:01:52.776Z,9.90
2019-05-06T10:02:52.717Z,9.00
2019-05-06T10:03:52.930Z,9.30
2019-05-06T10:04:52.207Z,10.30
2019-05-06T10:05:53.100Z,9.90
2019-05-06T10:06:59.073Z,10.20
2019-05-06T10:07:52.382Z,10.30
2019-05-06T10:08:51.378Z,10.30
2019-05-06T10:09:52.697Z,10.40
2019-05-06T10:10:58.575Z,10.40
2019-05-06T10:11:52.539Z,10.30
2019-05-06T10:12:53.037Z,10.50
2019-05-06T10:13:52.435Z,10.60
2019-05-06T10:14:52.587Z,10.40
2019-05-06T10:15:52.072Z,10.30
2019-05-06T10:16:52.361Z,10.60
2019-05-06T10:17:52.102Z,10.70
2019-05-06T10:18:52.402Z,9.90
2019-05-06T10:19:50.529Z,10.30
2019-05-06T10:20:50.463Z,10.60
2019-05-06T10:21:50.354Z,11.40
2019-05-06T10:22:51.981Z,10.10
2019-05-06T10:23:52.721Z,10.80
2019-05-06T10:24:52.154Z,10.30
2019-05-06T10:25:52.186Z,10.30
2019-05-06T10:26:52.195Z,10.90
2019-05-06T10:27:49.863Z,10.40
2019-05-06T10:28:52.138Z,10.60
2019-05-06T10:29:49.705Z,10.80
2019-05-06T10:30:49.643Z,10.60
2019-05-06T10:31:49.577Z,11.10
2019-05-06T10:32:49.481Z,11.40
2019-05-06T10:33:49.387Z,10.40
2019-05-06T10:34:49.311Z,11.60
2019-05-06T10:35:49.240Z,10.50
2019-05-06T10:36:49.160Z,11.10
2019-05-06T10:37:49.066Z,10.80
2019-05-06T10:38:48.991Z,10.90
2019-05-06T10:39:48.909Z,10.60
2019-05-06T10:41:02.786Z,10.60
2019-05-06T10:41:48.745Z,11.00
2019-05-06T10:42:48.671Z,10.60
2019-05-06T10:43:48.591Z,10.60
2019-05-06T10:44:48.506Z,11.10
2019-05-06T10:45:48.437Z,11.60
2019-05-06T10:46:48.352Z,11.30
2019-05-06T10:47:48.266Z,11.20
2019-05-06T10:48:48.188Z,11.30
2019-05-06T10:49:48.116Z,11.40
2019-05-06T10:50:48.045Z,11.70
2019-05-06T10:51:47.949Z,11.30
2019-05-06T10:52:47.872Z,11.80
2019-05-06T10:53:47.802Z,11.70
2019-05-06T10:54:47.718Z,10.70
2019-05-06T10:55:47.638Z,11.00
2019-05-06T10:56:52.837Z,11.20
2019-05-06T10:57:47.467Z,11.20
2019-05-06T10:58:47.395Z,10.60
2019-05-06T10:59:47.300Z,11.00
2019-05-06T11:00:47.248Z,10.20
2019-05-06T11:01:47.138Z,10.20
2019-05-06T11:02:47.055Z,10.60
2019-05-06T11:03:46.984Z,9.40
2019-05-06T11:04:46.898Z,9.90
2019-05-06T11:05:46.829Z,10.10
2019-05-06T11:06:46.736Z,9.70
2019-05-06T11:07:46.657Z,10.10
2019-05-06T11:08:46.580Z,9.60
2019-05-06T11:09:46.496Z,8.90
2019-05-06T11:10:46.421Z,9.60
2019-05-06T11:11:46.327Z,9.00
2019-05-06T11:12:46.242Z,8.40
2019-05-06T11:13:46.167Z,8.20
2019-05-06T11:14:46.088Z,9.20
2019-05-06T11:15:46.019Z,8.40
2019-05-06T11:16:45.920Z,8.60
2019-05-06T11:17:45.843Z,7.80
2019-05-06T11:18:45.768Z,7.50
2019-05-06T11:19:45.679Z,7.90
2019-05-06T11:20:45.618Z,7.80
2019-05-06T11:21:45.568Z,7.40
2019-05-06T11:22:45.429Z,7.70
2019-05-06T11:23:46.373Z,6.80
2019-05-06T11:24:45.300Z,7.10
2019-05-06T11:25:45.242Z,7.70
2019-05-06T11:26:45.115Z,7.00
2019-05-06T11:27:45.485Z,7.30
2019-05-06T11:28:44.936Z,7.80
2019-05-06T11:29:44.863Z,6.60
2019-05-06T11:30:44.782Z,7.40
2019-05-06T11:31:44.710Z,7.50
2019-05-06T11:32:44.712Z,7.10
2019-05-06T11:33:44.528Z,6.50
2019-05-06T11:34:44.449Z,6.70
2019-05-06T11:35:44.374Z,6.80
2019-05-06T11:36:44.314Z,6.80
2019-05-06T11:37:50.272Z,7.00
2019-05-06T11:38:44.133Z,6.10
2019-05-06T11:39:44.045Z,6.90
2019-05-06T11:40:43.973Z,6.50
2019-05-06T11:41:59.606Z,6.30
2019-05-06T11:42:43.905Z,6.50
2019-05-06T11:43:43.727Z,6.70
2019-05-06T11:44:44.217Z,6.50
2019-05-06T11:45:43.577Z,6.30
2019-05-06T11:46:43.502Z,6.60
2019-05-06T11:47:43.405Z,6.20
2019-05-06T11:48:43.376Z,6.10
2019-05-06T11:49:44.096Z,6.80
2019-05-06T11:50:43.158Z,6.10
2019-05-06T11:51:43.641Z,6.10
2019-05-06T11:52:43.523Z,6.20
2019-05-06T11:53:42.928Z,6.00
2019-05-06T11:54:42.836Z,6.40
2019-05-06T11:55:42.759Z,6.10
2019-05-06T11:56:50.685Z,5.70
2019-05-06T11:57:44.597Z,5.00
2019-05-06T11:58:43.076Z,5.80
2019-05-06T11:59:43.249Z,5.70
2019-05-06T12:00:44.264Z,6.20
2019-05-06T12:01:43.495Z,5.70
2019-05-06T12:02:47.877Z,6.10
2019-05-06T12:03:42.715Z,5.60
2019-05-06T12:04:42.056Z,5.60
2019-05-06T12:05:41.946Z,5.90
2019-05-06T12:06:42.487Z,6.00
2019-05-06T12:07:44.894Z,6.20
2019-05-06T12:08:43.294Z,6.30
2019-05-06T12:09:41.629Z,6.00
2019-05-06T12:10:42.430Z,5.90
2019-05-06T12:11:43.158Z,6.00
2019-05-06T12:12:42.525Z,6.20
2019-05-06T12:13:42.572Z,6.00
2019-05-06T12:14:42.957Z,5.30
2019-05-06T12:15:41.153Z,5.70
2019-05-06T12:16:41.159Z,5.30
2019-05-06T12:17:42.126Z,5.40
2019-05-06T12:18:42.263Z,5.80
2019-05-06T12:19:43.022Z,5.80
2019-05-06T12:20:42.610Z,5.60
2019-05-06T12:21:42.937Z,5.90
2019-05-06T12:22:42.322Z,5.20
2019-05-06T12:23:44.239Z,4.90
2019-05-06T12:24:42.862Z,4.70
2019-05-06T12:25:40.351Z,5.00
2019-05-06T12:26:42.702Z,5.50
2019-05-06T12:27:40.187Z,5.60
2019-05-06T12:28:40.100Z,5.60
2019-05-06T12:29:42.681Z,6.00
2019-05-06T12:30:39.937Z,5.20
2019-05-06T12:31:42.025Z,5.40
2019-05-06T12:32:39.797Z,5.50
2019-05-06T12:33:42.004Z,5.50
2019-05-06T12:34:39.609Z,5.40
2019-05-06T12:35:39.557Z,5.60
2019-05-06T12:36:39.461Z,6.00
2019-05-06T12:37:39.376Z,5.60
2019-05-06T12:38:39.292Z,5.80
2019-05-06T12:39:39.221Z,5.30
2019-05-06T12:40:39.133Z,6.20
2019-05-06T12:41:39.060Z,6.20
2019-05-06T12:42:38.972Z,6.00
2019-05-06T12:43:38.886Z,5.70
2019-05-06T12:44:38.820Z,5.80
2019-05-06T12:45:38.727Z,6.20
2019-05-06T12:46:38.671Z,6.30
2019-05-06T12:47:38.565Z,6.50
2019-05-06T12:48:38.497Z,6.60
2019-05-06T12:49:38.406Z,6.50
2019-05-06T12:50:38.334Z,6.10
2019-05-06T12:51:38.271Z,6.50
2019-05-06T12:52:38.177Z,6.90
2019-05-06T12:53:38.092Z,6.30
2019-05-06T12:54:38.014Z,7.10
2019-05-06T12:55:37.923Z,6.90
2019-05-06T12:56:37.875Z,7.00
2019-05-06T12:57:37.792Z,6.90
2019-05-06T12:58:37.696Z,6.80
2019-05-06T12:59:37.619Z,7.00
2019-05-06T13:00:37.524Z,7.10
2019-05-06T13:01:37.461Z,7.40
2019-05-06T13:02:37.434Z,7.20
2019-05-06T13:03:37.282Z,7.50
2019-05-06T13:04:51.575Z,7.60
2019-05-06T13:05:37.125Z,7.20
2019-05-06T13:06:37.056Z,6.90
2019-05-06T13:07:36.977Z,7.20